createdAt,value
2022-10-15T00:00:52.625Z,100697.47
2022-10-15T00:03:19.687Z,100786.50
2022-10-15T00:05:46.857Z,100783.81
2022-10-15T00:08:14.853Z,100790.00
2022-10-15T00:10:42.006Z,100786.53
2022-10-15T00:13:09.201Z,100697.59
2022-10-15T00:15:37.736Z,100785.78
2022-10-15T00:18:04.775Z,100770.94
2022-10-15T00:20:31.973Z,100756.66
2022-10-15T00:22:59.026Z,100759.47
2022-10-15T00:25:26.300Z,100753.91
2022-10-15T00:27:53.357Z,100790.00
2022-10-15T00:30:20.399Z,100775.94
2022-10-15T00:32:47.414Z,100609.25
2022-10-15T00:35:14.413Z,100782.22
2022-10-15T00:37:43.589Z,100794.19
2022-10-15T00:40:15.142Z,100757.94
2022-10-15T00:42:42.272Z,100793.31
2022-10-15T00:45:13.031Z,100768.63
2022-10-15T00:47:42.894Z,100751.25
2022-10-15T00:50:20.029Z,100761.19
2022-10-15T00:53:06.454Z,100783.31
2022-10-15T00:55:38.420Z,100703.38
2022-10-15T01:00:43.622Z,100709.59
2022-10-15T01:03:12.932Z,100776.59
2022-10-15T01:05:41.033Z,100759.00
2022-10-15T01:08:11.335Z,100789.06
2022-10-15T01:10:48.123Z,100764.16
2022-10-15T01:13:36.125Z,100737.91
2022-10-15T01:16:15.604Z,100801.06
2022-10-15T01:18:59.445Z,100794.19
2022-10-15T01:21:51.594Z,100737.81
2022-10-15T01:24:37.756Z,100792.63
2022-10-15T01:27:16.985Z,100667.41
2022-10-15T01:29:50.229Z,100734.31
2022-10-15T01:32:28.558Z,100796.84
2022-10-15T01:35:10.474Z,100788.84
2022-10-15T01:37:41.257Z,100612.19
2022-10-15T01:40:24.364Z,100805.25
2022-10-15T01:42:57.949Z,100797.50
2022-10-15T01:45:52.799Z,100807.00
2022-10-15T01:48:38.902Z,100792.59
2022-10-15T01:51:07.153Z,100770.66
2022-10-15T01:53:36.691Z,100809.47
2022-10-15T01:56:09.220Z,100791.06
2022-10-15T01:58:42.214Z,100777.59
2022-10-15T02:01:09.957Z,100759.09
2022-10-15T02:03:51.714Z,100777.56
2022-10-15T02:06:42.521Z,100823.03
2022-10-15T02:09:44.075Z,100695.81
2022-10-15T02:12:42.489Z,100807.53
2022-10-15T02:15:22.716Z,100809.09
2022-10-15T02:18:11.083Z,100809.13
2022-10-15T02:20:58.535Z,100792.16
2022-10-15T02:23:28.696Z,100809.75
2022-10-15T02:26:04.571Z,100631.34
2022-10-15T02:28:34.790Z,100799.75
2022-10-15T02:31:05.221Z,100818.41
2022-10-15T02:33:35.091Z,100819.03
2022-10-15T02:36:02.950Z,100820.09
2022-10-15T02:38:35.545Z,100817.50
2022-10-15T02:41:03.003Z,100755.63
2022-10-15T02:43:30.695Z,100712.91
2022-10-15T02:45:57.941Z,100836.28
2022-10-15T02:48:26.023Z,100812.75
2022-10-15T02:50:53.162Z,100815.53
2022-10-15T02:53:20.264Z,100805.53
2022-10-15T02:55:47.457Z,100793.22
2022-10-15T02:58:14.588Z,100804.59
2022-10-15T03:00:44.014Z,100825.84
2022-10-15T03:03:11.526Z,100691.41
2022-10-15T03:05:38.992Z,100644.78
2022-10-15T03:08:06.225Z,100813.16
2022-10-15T03:10:33.410Z,100734.72
2022-10-15T03:13:04.903Z,100805.19
2022-10-15T03:15:37.304Z,100785.72
2022-10-15T03:18:05.418Z,100795.34
2022-10-15T03:20:32.658Z,100836.00
2022-10-15T03:22:59.792Z,100840.06
2022-10-15T03:25:26.800Z,100809.56
2022-10-15T03:28:00.436Z,100773.44
2022-10-15T03:30:36.029Z,100752.16
2022-10-15T03:33:03.840Z,100836.91
2022-10-15T03:35:30.934Z,100831.25
2022-10-15T03:37:58.071Z,100827.09
2022-10-15T03:40:25.216Z,100758.16
2022-10-15T03:42:56.659Z,100808.66
2022-10-15T03:45:25.602Z,100842.16
2022-10-15T03:48:07.659Z,100735.84
2022-10-15T03:50:35.421Z,100831.13
2022-10-15T03:53:05.186Z,100810.75
2022-10-15T03:55:33.110Z,100847.81
2022-10-15T03:58:01.337Z,100842.81
2022-10-15T04:00:29.497Z,100843.69
2022-10-15T04:03:00.761Z,100607.13
2022-10-15T04:05:30.936Z,100728.72
2022-10-15T04:08:05.899Z,100664.97
2022-10-15T04:10:36.885Z,100852.94
2022-10-15T04:13:04.126Z,100859.16
2022-10-15T04:15:33.246Z,100852.31
2022-10-15T04:18:04.969Z,100856.59
2022-10-15T04:20:31.993Z,100754.97
2022-10-15T04:23:10.740Z,100771.63
2022-10-15T04:25:40.493Z,100821.16
2022-10-15T04:28:08.649Z,100831.53
2022-10-15T04:30:37.851Z,100792.75
2022-10-15T04:33:08.449Z,100835.97
2022-10-15T04:35:35.522Z,100625.19
2022-10-15T04:38:09.133Z,100865.81
2022-10-15T04:41:04.513Z,100855.25
2022-10-15T04:43:48.195Z,100819.91
2022-10-15T04:46:15.578Z,100878.75
2022-10-15T04:48:43.425Z,100874.47
2022-10-15T04:51:16.526Z,100845.34
2022-10-15T04:54:02.269Z,100779.28
2022-10-15T04:56:30.898Z,100844.66
2022-10-15T04:58:58.141Z,100871.97
2022-10-15T05:01:28.735Z,100861.28
2022-10-15T05:04:03.924Z,100872.84
2022-10-15T05:06:33.971Z,100811.13
2022-10-15T05:09:14.744Z,100854.91
2022-10-15T05:11:48.122Z,100863.91
2022-10-15T05:14:15.541Z,100876.50
2022-10-15T05:16:42.915Z,100876.50
2022-10-15T05:19:11.785Z,100876.59
2022-10-15T05:21:41.200Z,100878.38
2022-10-15T05:24:14.868Z,100777.13
2022-10-15T05:27:03.108Z,100894.09
2022-10-15T05:29:33.162Z,100850.13
2022-10-15T05:32:00.376Z,100776.06
2022-10-15T05:34:30.661Z,100887.25
2022-10-15T05:37:02.329Z,100881.31
2022-10-15T05:39:29.352Z,100880.44
2022-10-15T05:41:56.490Z,100889.31
2022-10-15T05:44:32.731Z,100888.47
2022-10-15T05:46:59.893Z,100821.31
2022-10-15T05:49:28.126Z,100867.63
2022-10-15T05:52:05.490Z,100866.66
2022-10-15T05:54:47.081Z,100894.72
2022-10-15T05:57:14.218Z,100854.28
2022-10-15T05:59:41.417Z,100893.25
2022-10-15T06:02:10.707Z,100822.56
2022-10-15T06:04:37.681Z,100896.09
2022-10-15T06:07:04.623Z,100898.69
2022-10-15T06:09:31.608Z,100791.16
2022-10-15T06:11:58.608Z,100818.44
2022-10-15T06:14:31.535Z,100875.16
2022-10-15T06:16:58.715Z,100847.84
2022-10-15T06:19:25.775Z,100901.13
2022-10-15T06:21:52.705Z,100807.66
2022-10-15T06:24:19.992Z,100900.28
2022-10-15T06:26:47.106Z,100872.13
2022-10-15T06:29:14.433Z,100906.72
2022-10-15T06:31:41.541Z,100903.28
2022-10-15T06:34:08.752Z,100885.56
2022-10-15T06:36:35.846Z,100878.50
2022-10-15T06:39:02.890Z,100884.56
2022-10-15T06:41:30.039Z,100760.53
2022-10-15T06:43:56.953Z,100854.09
2022-10-15T06:46:23.994Z,100882.38
2022-10-15T06:48:52.010Z,100915.88
2022-10-15T06:51:19.070Z,100909.97
2022-10-15T06:53:50.011Z,100884.38
2022-10-15T06:56:16.951Z,100925.72
2022-10-15T06:58:45.399Z,100870.63
2022-10-15T07:01:12.569Z,100883.31
2022-10-15T07:03:39.709Z,100916.22
2022-10-15T07:06:09.350Z,100919.19
2022-10-15T07:08:37.168Z,100902.66
2022-10-15T07:11:06.443Z,100871.16
2022-10-15T07:13:33.517Z,100835.84
2022-10-15T07:16:19.395Z,100894.28
2022-10-15T07:18:48.850Z,100920.22
2022-10-15T07:21:15.923Z,100926.41
2022-10-15T07:23:43.052Z,100873.25
2022-10-15T07:26:10.073Z,100823.50
2022-10-15T07:28:37.181Z,100913.78
2022-10-15T07:31:06.472Z,100938.22
2022-10-15T07:33:37.395Z,100925.28
2022-10-15T07:36:11.213Z,100913.53
2022-10-15T07:38:42.208Z,100911.88
2022-10-15T07:41:10.617Z,100828.16
2022-10-15T07:43:43.528Z,100928.38
2022-10-15T07:46:10.851Z,100915.78
2022-10-15T07:48:37.796Z,100941.56
2022-10-15T07:51:07.030Z,100943.44
2022-10-15T07:53:34.827Z,100909.03
2022-10-15T07:56:06.355Z,100911.66
2022-10-15T07:58:38.387Z,100944.38
2022-10-15T08:01:06.844Z,100868.72
2022-10-15T08:03:34.855Z,100914.69
2022-10-15T08:06:03.642Z,100946.53
2022-10-15T08:08:31.472Z,100947.34
2022-10-15T08:10:58.603Z,100950.00
2022-10-15T08:13:25.934Z,100940.44
2022-10-15T08:15:57.803Z,100935.38
2022-10-15T08:18:27.664Z,100924.78
2022-10-15T08:20:54.786Z,100948.78
2022-10-15T08:23:21.832Z,100938.19
2022-10-15T08:25:48.823Z,100951.56
2022-10-15T08:28:15.731Z,100867.84
2022-10-15T08:30:42.867Z,100922.66
2022-10-15T08:33:12.990Z,100902.22
2022-10-15T08:35:44.169Z,100895.09
2022-10-15T08:38:14.740Z,100958.53
2022-10-15T08:40:54.116Z,100950.09
2022-10-15T08:43:41.088Z,100957.16
2022-10-15T08:46:34.126Z,100948.47
2022-10-15T08:49:02.432Z,100936.63
2022-10-15T08:51:50.077Z,100866.84
2022-10-15T08:54:18.887Z,100965.34
2022-10-15T08:56:54.467Z,100850.63
2022-10-15T08:59:27.540Z,100962.47
2022-10-15T09:02:03.354Z,100954.75
2022-10-15T09:04:38.187Z,100961.88
2022-10-15T09:07:23.642Z,100933.06
2022-10-15T09:10:01.580Z,100891.91
2022-10-15T09:12:46.643Z,100917.47
2022-10-15T09:15:17.285Z,100865.28
2022-10-15T09:17:47.686Z,100923.66
2022-10-15T09:20:23.929Z,100950.09
2022-10-15T09:22:54.381Z,100932.88
2022-10-15T09:25:26.467Z,100915.19
2022-10-15T09:28:08.907Z,100954.88
2022-10-15T09:30:53.096Z,100876.00
2022-10-15T09:33:26.350Z,100964.97
2022-10-15T09:36:09.516Z,100908.84
2022-10-15T09:39:01.137Z,100951.50
2022-10-15T09:42:05.694Z,100959.69
2022-10-15T09:44:38.559Z,100907.56
2022-10-15T09:47:17.174Z,100960.50
2022-10-15T09:49:44.164Z,100842.56
2022-10-15T09:52:46.278Z,100932.78
2022-10-15T09:55:22.117Z,100789.66
2022-10-15T09:57:53.381Z,100967.53
2022-10-15T10:00:21.013Z,100831.31
2022-10-15T10:03:14.786Z,100937.84
2022-10-15T10:05:42.331Z,100946.34
2022-10-15T10:08:22.970Z,100955.28
2022-10-15T10:11:01.980Z,100911.47
2022-10-15T10:13:34.026Z,100920.22
2022-10-15T10:16:10.321Z,100856.72
2022-10-15T10:18:37.939Z,100944.88
2022-10-15T10:21:26.818Z,100947.69
2022-10-15T10:23:53.781Z,100944.94
2022-10-15T10:26:21.055Z,100910.47
2022-10-15T10:28:49.596Z,100948.31
2022-10-15T10:31:16.837Z,100950.75
2022-10-15T10:33:50.320Z,100924.56
2022-10-15T10:36:34.392Z,100952.16
2022-10-15T10:39:10.965Z,100930.28
2022-10-15T10:41:56.443Z,100935.69
2022-10-15T10:44:42.021Z,100938.19
2022-10-15T10:47:16.374Z,100932.59
2022-10-15T10:49:45.474Z,100945.94
2022-10-15T10:52:24.972Z,100908.19
2022-10-15T10:54:59.383Z,100933.63
2022-10-15T10:57:40.688Z,100942.53
2022-10-15T11:00:08.996Z,100949.59
2022-10-15T11:02:44.027Z,100768.31
2022-10-15T11:05:12.813Z,100905.50
2022-10-15T11:07:58.696Z,100925.06
2022-10-15T11:10:51.952Z,100924.09
2022-10-15T11:13:18.858Z,100950.28
2022-10-15T11:16:01.352Z,100951.41
2022-10-15T11:18:41.305Z,100941.94
2022-10-15T11:21:32.955Z,100937.53
2022-10-15T11:24:33.521Z,100931.56
2022-10-15T11:27:38.977Z,100867.91
2022-10-15T11:30:27.361Z,100918.38
2022-10-15T11:33:23.543Z,100942.22
2022-10-15T11:36:10.877Z,100925.63
2022-10-15T11:38:52.228Z,100811.91
2022-10-15T11:42:00.163Z,100936.22
2022-10-15T11:44:43.679Z,100935.22
2022-10-15T11:47:41.902Z,100929.72
2022-10-15T11:50:37.888Z,100944.91
2022-10-15T11:53:34.394Z,100921.63
2022-10-15T11:56:12.910Z,100849.28
2022-10-15T11:58:52.466Z,100940.00
2022-10-15T12:01:43.984Z,100939.25
2022-10-15T12:04:17.479Z,100854.66
2022-10-15T12:06:50.304Z,100901.31
2022-10-15T12:09:27.318Z,100909.28
2022-10-15T12:12:12.948Z,100934.38
2022-10-15T12:14:58.237Z,100940.28
2022-10-15T12:17:39.809Z,100924.91
2022-10-15T12:20:15.373Z,100911.84
2022-10-15T12:22:48.451Z,100918.22
2022-10-15T12:25:34.032Z,100931.38
2022-10-15T12:28:13.591Z,100937.41
2022-10-15T12:30:42.679Z,100923.44
2022-10-15T12:33:27.314Z,100797.94
2022-10-15T12:35:56.883Z,100879.84
2022-10-15T12:38:29.127Z,100920.41
2022-10-15T12:41:02.191Z,100811.44
2022-10-15T12:43:31.366Z,100876.84
2022-10-15T12:46:04.645Z,100843.38
2022-10-15T12:48:35.706Z,100908.56
2022-10-15T12:51:22.977Z,100923.59
2022-10-15T12:53:52.223Z,100882.94
2022-10-15T12:56:35.408Z,100903.91
2022-10-15T12:59:02.602Z,100897.69
2022-10-15T13:01:51.290Z,100897.38
2022-10-15T13:04:19.724Z,100907.91
2022-10-15T13:06:47.754Z,100928.91
2022-10-15T13:09:27.452Z,100911.25
2022-10-15T13:11:57.695Z,100919.34
2022-10-15T13:14:51.865Z,100886.91
2022-10-15T13:17:21.436Z,100902.53
2022-10-15T13:19:58.232Z,100937.69
2022-10-15T13:22:31.963Z,100925.31
2022-10-15T13:24:59.342Z,100922.41
2022-10-15T13:27:44.407Z,100920.59
2022-10-15T13:30:16.950Z,100902.44
2022-10-15T13:32:49.329Z,100903.19
2022-10-15T13:35:23.108Z,100882.78
2022-10-15T13:37:52.297Z,100869.53
2022-10-15T13:40:23.364Z,100813.00
2022-10-15T13:43:06.401Z,100905.56
2022-10-15T13:45:34.149Z,100907.19
2022-10-15T13:48:02.229Z,100905.63
2022-10-15T13:50:30.592Z,100931.75
2022-10-15T13:53:15.203Z,100929.16
2022-10-15T13:55:48.628Z,100896.41
2022-10-15T13:58:24.891Z,100865.28
2022-10-15T14:01:02.750Z,100929.75
2022-10-15T14:03:31.871Z,100920.78
2022-10-15T14:06:14.250Z,100903.03
2022-10-15T14:08:41.168Z,100861.44
2022-10-15T14:11:12.873Z,100927.06
2022-10-15T14:13:55.026Z,100920.97
2022-10-15T14:16:28.990Z,100874.56
2022-10-15T14:19:21.406Z,100914.09
2022-10-15T14:21:52.218Z,100945.97
2022-10-15T14:24:23.606Z,100957.19
2022-10-15T14:26:51.116Z,100937.94
2022-10-15T14:29:34.849Z,100922.81
2022-10-15T14:32:02.504Z,100948.34
2022-10-15T14:34:38.678Z,100959.47
2022-10-15T14:37:36.475Z,100959.47
2022-10-15T14:40:23.955Z,100958.34
2022-10-15T14:43:03.721Z,100964.00
2022-10-15T14:45:54.287Z,100971.19
2022-10-15T14:48:26.828Z,100966.53
2022-10-15T14:51:02.912Z,100883.09
2022-10-15T14:53:37.117Z,100957.03
2022-10-15T14:56:29.172Z,100968.53
2022-10-15T14:58:58.157Z,100954.84
2022-10-15T15:01:29.397Z,100968.59
2022-10-15T15:03:57.742Z,100964.31
2022-10-15T15:06:24.918Z,100937.75
2022-10-15T15:08:53.273Z,100943.75
2022-10-15T15:11:24.238Z,100967.19
2022-10-15T15:13:52.412Z,100957.34
2022-10-15T15:16:20.186Z,100981.63
2022-10-15T15:18:48.898Z,100970.25
2022-10-15T15:21:20.912Z,100979.66
2022-10-15T15:23:48.850Z,100789.81
2022-10-15T15:26:16.052Z,100965.94
2022-10-15T15:28:43.198Z,100969.47
2022-10-15T15:31:16.349Z,100945.41
2022-10-15T15:33:44.432Z,100966.47
2022-10-15T15:36:20.571Z,100969.06
2022-10-15T15:38:51.762Z,100990.88
2022-10-15T15:41:21.674Z,100974.06
2022-10-15T15:43:49.326Z,100990.56
2022-10-15T15:46:16.641Z,100985.88
2022-10-15T15:48:45.195Z,100994.34
2022-10-15T15:51:25.228Z,101002.13
2022-10-15T15:53:52.296Z,100975.69
2022-10-15T15:56:19.636Z,100935.84
2022-10-15T15:58:46.811Z,100968.34
2022-10-15T16:01:13.870Z,100968.34
2022-10-15T16:03:40.991Z,100998.97
2022-10-15T16:06:08.723Z,100915.94
2022-10-15T16:08:37.303Z,100962.63
2022-10-15T16:11:06.768Z,100987.31
2022-10-15T16:13:34.904Z,100986.31
2022-10-15T16:16:02.389Z,100996.84
2022-10-15T16:18:30.052Z,100992.34
2022-10-15T16:20:57.284Z,100939.06
2022-10-15T16:23:24.455Z,101000.72
2022-10-15T16:25:51.728Z,100977.50
2022-10-15T16:28:18.930Z,100976.22
2022-10-15T16:30:46.041Z,100973.72
2022-10-15T16:33:13.120Z,100959.88
2022-10-15T16:35:40.305Z,101006.88
2022-10-15T16:38:07.768Z,100965.38
2022-10-15T16:40:35.568Z,100945.72
2022-10-15T16:43:02.755Z,100998.84
2022-10-15T16:45:29.763Z,100878.66
2022-10-15T16:47:56.962Z,100994.31
2022-10-15T16:50:25.138Z,101006.47
2022-10-15T16:52:52.291Z,100976.00
2022-10-15T16:55:19.431Z,100991.78
2022-10-15T16:57:46.485Z,100986.06
2022-10-15T17:00:14.010Z,100993.81
2022-10-15T17:02:41.037Z,100968.25
2022-10-15T17:05:08.512Z,101015.03
2022-10-15T17:07:35.523Z,101004.19
2022-10-15T17:10:02.773Z,101011.31
2022-10-15T17:12:30.387Z,100893.63
2022-10-15T17:14:57.458Z,100985.81
2022-10-15T17:17:24.507Z,101013.66
2022-10-15T17:19:51.476Z,101023.38
2022-10-15T17:22:18.592Z,101010.06
2022-10-15T17:24:45.638Z,100976.25
2022-10-15T17:27:12.758Z,100921.34
2022-10-15T17:29:39.857Z,101022.59
2022-10-15T17:32:06.950Z,100934.19
2022-10-15T17:34:34.404Z,100937.59
2022-10-15T17:37:02.260Z,101034.88
2022-10-15T17:39:29.386Z,101033.84
2022-10-15T17:41:56.640Z,100915.28
2022-10-15T17:44:23.826Z,101039.78
2022-10-15T17:46:52.885Z,100938.97
2022-10-15T17:49:26.341Z,100938.97
2022-10-15T17:51:53.401Z,101031.75
2022-10-15T17:54:20.422Z,101047.34
2022-10-15T17:56:48.736Z,101046.19
2022-10-15T17:59:15.832Z,101048.78
2022-10-15T18:02:00.601Z,101007.88
2022-10-15T18:04:32.468Z,101045.75
2022-10-15T18:06:59.678Z,101041.16
2022-10-15T18:09:28.451Z,101045.22
2022-10-15T18:12:00.594Z,101003.84
2022-10-15T18:14:30.870Z,100969.16
2022-10-15T18:16:58.404Z,100879.50
2022-10-15T18:19:26.822Z,101032.72
2022-10-15T18:21:55.638Z,101037.63
2022-10-15T18:24:24.720Z,100941.88
2022-10-15T18:26:52.625Z,101054.25
2022-10-15T18:29:20.039Z,101043.19
2022-10-15T18:31:47.635Z,101029.09
2022-10-15T18:34:15.261Z,101051.09
2022-10-15T18:36:43.765Z,101033.19
2022-10-15T18:39:11.799Z,101037.56
2022-10-15T18:41:40.429Z,101066.47
2022-10-15T18:44:13.719Z,101052.31
2022-10-15T18:46:42.335Z,101038.16
2022-10-15T18:49:09.571Z,101087.09
2022-10-15T18:51:37.034Z,101018.94
2022-10-15T18:54:06.332Z,101084.44
2022-10-15T18:56:33.518Z,101061.75
2022-10-15T18:59:01.354Z,101067.09
2022-10-15T19:01:33.926Z,101063.63
2022-10-15T19:04:04.429Z,101078.72
2022-10-15T19:06:35.642Z,101080.56
2022-10-15T19:09:05.494Z,101076.63
2022-10-15T19:11:35.360Z,101094.38
2022-10-15T19:14:05.315Z,100993.03
2022-10-15T19:16:33.080Z,101068.97
2022-10-15T19:19:15.180Z,101096.41
2022-10-15T19:21:46.682Z,101094.38
2022-10-15T19:24:15.519Z,101081.97
2022-10-15T19:26:42.788Z,100990.25
2022-10-15T19:29:11.378Z,101097.41
2022-10-15T19:31:41.302Z,101099.97
2022-10-15T19:34:09.976Z,101079.00
2022-10-15T19:36:44.399Z,101101.81
2022-10-15T19:39:15.211Z,101103.66
2022-10-15T19:41:43.591Z,101071.63
2022-10-15T19:44:13.084Z,101109.84
2022-10-15T19:46:40.902Z,101118.50
2022-10-15T19:49:10.986Z,101100.03
2022-10-15T19:51:38.169Z,100885.00
2022-10-15T19:54:05.304Z,101077.09
2022-10-15T19:56:33.200Z,101027.53
2022-10-15T19:59:03.461Z,101107.88
2022-10-15T20:01:30.895Z,101117.81
2022-10-15T20:04:05.836Z,101063.22
2022-10-15T20:06:36.597Z,101112.44
2022-10-15T20:09:04.293Z,101093.97
2022-10-15T20:11:31.438Z,101114.06
2022-10-15T20:13:59.872Z,101122.84
2022-10-15T20:16:28.835Z,101045.25
2022-10-15T20:19:01.945Z,101009.91
2022-10-15T20:21:30.503Z,101123.06
2022-10-15T20:23:58.011Z,101144.00
2022-10-15T20:26:25.179Z,101138.75
2022-10-15T20:28:53.586Z,101056.13
2022-10-15T20:31:21.699Z,101132.19
2022-10-15T20:33:49.349Z,101144.59
2022-10-15T20:36:22.543Z,101145.41
2022-10-15T20:38:51.299Z,101157.47
2022-10-15T20:41:19.509Z,101153.06
2022-10-15T20:43:51.532Z,101151.31
2022-10-15T20:46:27.645Z,101162.41
2022-10-15T20:48:57.028Z,101158.00
2022-10-15T20:51:28.382Z,101164.25
2022-10-15T20:53:57.376Z,101125.34
2022-10-15T20:56:25.013Z,101096.19
2022-10-15T20:58:52.044Z,101081.28
2022-10-15T21:01:19.663Z,101050.03
2022-10-15T21:03:46.921Z,101173.03
2022-10-15T21:06:14.114Z,101124.03
2022-10-15T21:08:41.274Z,101158.94
2022-10-15T21:11:09.506Z,101149.94
2022-10-15T21:13:36.660Z,101155.25
2022-10-15T21:16:06.465Z,101146.38
2022-10-15T21:18:35.555Z,101160.41
2022-10-15T21:21:03.676Z,101081.47
2022-10-15T21:23:31.503Z,101168.19
2022-10-15T21:26:15.479Z,101174.47
2022-10-15T21:28:43.193Z,101154.66
2022-10-15T21:31:12.634Z,101167.22
2022-10-15T21:33:40.498Z,101094.75
2022-10-15T21:36:15.391Z,101100.97
2022-10-15T21:38:42.676Z,101084.94
2022-10-15T21:41:10.077Z,101182.22
2022-10-15T21:43:37.188Z,101084.88
2022-10-15T21:46:09.071Z,101180.34
2022-10-15T21:48:37.063Z,101191.00
2022-10-15T21:51:05.534Z,101171.66
2022-10-15T21:53:33.114Z,101168.84
2022-10-15T21:56:00.267Z,100949.75
2022-10-15T21:58:27.300Z,101190.50
2022-10-15T22:00:54.645Z,101090.50
2022-10-15T22:03:23.082Z,101190.28
2022-10-15T22:05:50.579Z,101182.31
2022-10-15T22:08:17.600Z,100960.72
2022-10-15T22:10:44.614Z,101157.91
2022-10-15T22:13:11.642Z,101150.44
2022-10-15T22:15:38.659Z,101165.41
2022-10-15T22:18:05.828Z,101190.16
2022-10-15T22:20:32.966Z,101158.06
2022-10-15T22:23:00.026Z,101177.34
2022-10-15T22:25:27.215Z,101186.56
2022-10-15T22:27:54.261Z,101201.41
2022-10-15T22:30:21.410Z,101189.97
2022-10-15T22:32:48.524Z,101161.19
2022-10-15T22:35:15.706Z,101216.31
2022-10-15T22:37:42.925Z,101191.94
2022-10-15T22:40:12.097Z,101143.78
2022-10-15T22:42:39.229Z,101194.44
2022-10-15T22:45:06.883Z,101168.66
2022-10-15T22:47:33.948Z,101181.00
2022-10-15T22:52:33.044Z,101196.50
2022-10-15T22:55:00.477Z,101191.91
2022-10-15T22:57:27.508Z,101112.56
2022-10-15T22:59:57.187Z,101184.94
2022-10-15T23:02:26.731Z,101105.09
2022-10-15T23:04:54.095Z,101162.47
2022-10-15T23:07:21.298Z,101203.19
2022-10-15T23:09:49.194Z,101213.50
2022-10-15T23:12:16.271Z,101190.63
2022-10-15T23:14:43.375Z,101083.91
2022-10-15T23:17:10.631Z,101207.06
2022-10-15T23:19:37.605Z,101209.47
2022-10-15T23:22:04.726Z,101220.72
2022-10-15T23:24:31.842Z,101213.38
2022-10-15T23:26:58.942Z,101122.75
2022-10-15T23:29:26.644Z,101191.78
2022-10-15T23:31:54.483Z,101227.03
2022-10-15T23:34:24.475Z,101197.44
2022-10-15T23:36:53.031Z,101168.50
2022-10-15T23:39:23.698Z,101227.13
2022-10-15T23:41:51.201Z,101233.22
2022-10-15T23:44:18.666Z,101217.91
2022-10-15T23:46:46.191Z,101220.66
2022-10-15T23:49:13.620Z,101237.13
2022-10-15T23:51:41.014Z,101238.16
2022-10-15T23:54:17.909Z,101234.03
2022-10-15T23:56:46.685Z,101189.59
2022-10-15T23:59:14.411Z,101175.97
